createdAt,value
2023-02-21T00:01:09.733Z,101654.60
2023-02-21T00:03:39.861Z,101653.31
2023-02-21T00:06:10.245Z,101643.41
2023-02-21T00:08:39.961Z,101621.38
2023-02-21T00:11:09.466Z,101593.35
2023-02-21T00:13:39.032Z,101580.92
2023-02-21T00:16:08.737Z,101589.37
2023-02-21T00:18:37.427Z,101598.45
2023-02-21T00:21:07.975Z,101595.48
2023-02-21T00:23:37.837Z,101597.77
2023-02-21T00:26:09.077Z,101603.95
2023-02-21T00:28:40.164Z,101609.36
2023-02-21T00:31:11.100Z,101598.93
2023-02-21T00:33:42.027Z,101598.54
2023-02-21T00:36:11.847Z,101591.08
2023-02-21T00:38:41.926Z,101590.52
2023-02-21T00:41:13.247Z,101611.52
2023-02-21T00:43:47.357Z,101624.36
2023-02-21T00:46:18.524Z,101616.73
2023-02-21T00:48:47.544Z,101594.94
2023-02-21T00:51:17.920Z,101579.09
2023-02-21T00:53:48.976Z,101573.02
2023-02-21T00:56:18.471Z,101567.78
2023-02-21T00:58:47.529Z,101570.79
2023-02-21T01:01:17.884Z,101557.48
2023-02-21T01:03:48.503Z,101545.13
2023-02-21T01:06:18.207Z,101537.52
2023-02-21T01:08:49.529Z,101525.14
2023-02-21T01:11:20.583Z,101505.33
2023-02-21T01:13:51.991Z,101499.70
2023-02-21T01:16:22.305Z,101507.53
2023-02-21T01:18:54.461Z,101516.94
2023-02-21T01:21:24.088Z,101519.17
2023-02-21T01:23:56.456Z,101525.66
2023-02-21T01:26:28.259Z,101509.06
2023-02-21T01:29:00.761Z,101517.85
2023-02-21T01:31:31.433Z,101514.77
2023-02-21T01:34:02.968Z,101519.69
2023-02-21T01:36:34.381Z,101501.80
2023-02-21T01:39:03.728Z,101491.41
2023-02-21T01:41:33.877Z,101494.52
2023-02-21T01:44:23.489Z,101497.65
2023-02-21T01:46:54.042Z,101493.52
2023-02-21T01:49:27.427Z,101492.02
2023-02-21T01:52:01.720Z,101473.04
2023-02-21T01:54:32.096Z,101468.34
2023-02-21T01:57:02.978Z,101458.64
2023-02-21T01:59:34.798Z,101446.64
2023-02-21T02:02:11.470Z,101431.96
2023-02-21T02:04:41.686Z,101415.29
2023-02-21T02:07:12.792Z,101413.58
2023-02-21T02:09:43.371Z,101417.10
2023-02-21T02:12:26.866Z,101415.25
2023-02-21T02:15:11.348Z,101395.27
2023-02-21T02:17:35.774Z,101385.55
2023-02-21T02:20:29.824Z,101387.08
2023-02-21T02:23:21.869Z,101384.52
2023-02-21T02:25:58.497Z,101394.55
2023-02-21T02:28:43.345Z,101394.62
2023-02-21T02:31:37.582Z,101374.96
2023-02-21T02:34:43.211Z,101360.99
2023-02-21T02:37:04.074Z,101348.11
2023-02-21T02:39:29.258Z,101358.09
2023-02-21T02:41:53.317Z,101359.44
2023-02-21T02:44:14.503Z,101350.30
2023-02-21T02:46:33.016Z,101354.20
2023-02-21T02:48:50.857Z,101350.46
2023-02-21T02:51:12.279Z,101335.16
2023-02-21T02:53:30.159Z,101329.80
2023-02-21T02:55:51.001Z,101326.48
2023-02-21T02:58:07.318Z,101300.70
2023-02-21T03:00:22.295Z,101295.38
2023-02-21T03:02:50.517Z,101289.14
2023-02-21T03:05:19.286Z,101274.69
2023-02-21T03:07:43.443Z,101258.67
2023-02-21T03:10:06.145Z,101253.07
2023-02-21T03:12:29.385Z,101257.98
2023-02-21T03:14:50.203Z,101266.84
2023-02-21T03:17:08.507Z,101276.35
2023-02-21T03:19:25.328Z,101275.52
2023-02-21T03:21:43.054Z,101266.80
2023-02-21T03:24:01.518Z,101243.10
2023-02-21T03:26:17.822Z,101245.00
2023-02-21T03:28:36.459Z,101248.12
2023-02-21T03:30:52.478Z,101250.11
2023-02-21T03:33:06.455Z,101246.70
2023-02-21T03:35:20.778Z,101243.67
2023-02-21T03:37:39.169Z,101245.31
2023-02-21T03:39:52.051Z,101252.77
2023-02-21T03:42:06.825Z,101250.84
2023-02-21T03:44:20.352Z,101241.16
2023-02-21T03:46:33.482Z,101227.85
2023-02-21T03:48:46.253Z,101221.27
2023-02-21T03:51:05.438Z,101230.23
2023-02-21T03:53:21.532Z,101222.29
2023-02-21T03:55:34.318Z,101216.33
2023-02-21T03:57:49.539Z,101207.56
2023-02-21T04:00:02.345Z,101215.23
2023-02-21T04:02:16.913Z,101204.71
2023-02-21T04:04:30.071Z,101187.86
2023-02-21T04:06:51.744Z,101181.90
2023-02-21T04:09:04.609Z,101180.62
2023-02-21T04:11:19.639Z,101172.52
2023-02-21T04:13:32.601Z,101166.64
2023-02-21T04:15:46.440Z,101155.05
2023-02-21T04:17:59.237Z,101138.38
2023-02-21T04:20:17.394Z,101135.09
2023-02-21T04:22:37.555Z,101131.48
2023-02-21T04:24:50.269Z,101136.87
2023-02-21T04:27:04.572Z,101142.59
2023-02-21T04:29:25.188Z,101137.78
2023-02-21T04:31:38.342Z,101133.49
2023-02-21T04:34:10.658Z,101131.63
2023-02-21T04:36:24.962Z,101135.27
2023-02-21T04:38:38.709Z,101123.71
2023-02-21T04:40:52.135Z,101103.54
2023-02-21T04:43:04.845Z,101096.58
2023-02-21T04:45:17.725Z,101089.21
2023-02-21T04:47:31.896Z,101087.20
2023-02-21T04:49:44.446Z,101087.52
2023-02-21T04:51:58.158Z,101087.62
2023-02-21T04:54:13.655Z,101089.73
2023-02-21T04:56:28.682Z,101080.19
2023-02-21T04:58:46.119Z,101086.55
2023-02-21T05:01:00.684Z,101077.48
2023-02-21T05:03:15.672Z,101072.61
2023-02-21T05:05:28.599Z,101069.55
2023-02-21T05:07:41.156Z,101069.55
2023-02-21T05:09:54.826Z,101073.16
2023-02-21T05:12:12.355Z,101075.15
2023-02-21T05:14:25.564Z,101074.54
2023-02-21T05:16:38.257Z,101069.82
2023-02-21T05:18:55.612Z,101060.10
2023-02-21T05:21:10.045Z,101049.01
2023-02-21T05:23:34.935Z,101038.93
2023-02-21T05:25:49.354Z,101041.33
2023-02-21T05:28:03.259Z,101036.60
2023-02-21T05:30:18.434Z,101029.15
2023-02-21T05:32:31.764Z,101019.78
2023-02-21T05:34:48.042Z,101002.41
2023-02-21T05:37:03.217Z,101005.46
2023-02-21T05:39:16.717Z,100998.38
2023-02-21T05:41:31.786Z,100984.84
2023-02-21T05:43:46.093Z,100965.45
2023-02-21T05:45:58.689Z,100953.26
2023-02-21T05:48:11.821Z,100941.25
2023-02-21T05:50:25.479Z,100956.23
2023-02-21T05:52:38.259Z,100952.00
2023-02-21T05:54:51.158Z,100948.20
2023-02-21T05:57:04.360Z,100951.52
2023-02-21T05:59:17.429Z,100940.46
2023-02-21T06:01:30.087Z,100943.39
2023-02-21T06:03:42.697Z,100928.55
2023-02-21T06:05:55.121Z,100927.63
2023-02-21T06:08:10.765Z,100911.45
2023-02-21T06:10:25.124Z,100904.92
2023-02-21T06:12:38.056Z,100904.38
2023-02-21T06:14:51.173Z,100906.64
2023-02-21T06:17:04.356Z,100896.99
2023-02-21T06:19:18.871Z,100891.31
2023-02-21T06:21:31.949Z,100888.12
2023-02-21T06:23:44.372Z,100868.81
2023-02-21T06:25:58.261Z,100871.02
2023-02-21T06:28:12.458Z,100870.98
2023-02-21T06:30:25.066Z,100852.88
2023-02-21T06:32:37.580Z,100844.02
2023-02-21T06:34:51.467Z,100834.06
2023-02-21T06:37:05.353Z,100827.64
2023-02-21T06:39:18.541Z,100828.58
2023-02-21T06:41:33.301Z,100832.08
2023-02-21T06:43:45.955Z,100830.73
2023-02-21T06:46:00.584Z,100817.15
2023-02-21T06:48:17.404Z,100798.41
2023-02-21T06:50:30.831Z,100793.59
2023-02-21T06:52:43.565Z,100793.60
2023-02-21T06:54:57.682Z,100804.69
2023-02-21T06:57:11.769Z,100792.13
2023-02-21T06:59:25.097Z,100783.05
2023-02-21T07:01:38.510Z,100783.70
2023-02-21T07:03:52.298Z,100786.67
2023-02-21T07:06:06.977Z,100779.09
2023-02-21T07:08:20.351Z,100773.33
2023-02-21T07:10:35.140Z,100763.09
2023-02-21T07:12:48.617Z,100747.66
2023-02-21T07:15:02.782Z,100744.68
2023-02-21T07:17:16.263Z,100741.64
2023-02-21T07:19:28.876Z,100748.63
2023-02-21T07:21:42.157Z,100747.33
2023-02-21T07:23:55.788Z,100750.63
2023-02-21T07:26:10.184Z,100744.91
2023-02-21T07:28:23.807Z,100751.86
2023-02-21T07:30:37.966Z,100744.89
2023-02-21T07:32:51.792Z,100749.42
2023-02-21T07:35:06.132Z,100754.09
2023-02-21T07:37:19.230Z,100749.35
2023-02-21T07:39:33.542Z,100750.13
2023-02-21T07:41:48.289Z,100744.39
2023-02-21T07:44:09.069Z,100745.55
2023-02-21T07:46:23.109Z,100743.28
2023-02-21T07:48:37.223Z,100760.65
2023-02-21T07:50:51.676Z,100768.02
2023-02-21T07:53:05.255Z,100759.73
2023-02-21T07:55:18.553Z,100768.11
2023-02-21T07:57:33.052Z,100766.01
2023-02-21T07:59:46.768Z,100757.05
2023-02-21T08:02:01.380Z,100768.65
2023-02-21T08:04:16.108Z,100762.04
2023-02-21T08:06:28.802Z,100771.88
2023-02-21T08:08:42.909Z,100775.26
2023-02-21T08:10:57.273Z,100764.16
2023-02-21T08:13:10.799Z,100762.98
2023-02-21T08:15:25.866Z,100765.89
2023-02-21T08:17:38.888Z,100759.24
2023-02-21T08:19:51.503Z,100760.19
2023-02-21T08:22:04.554Z,100763.65
2023-02-21T08:24:17.851Z,100759.23
2023-02-21T08:26:31.160Z,100753.67
2023-02-21T08:28:45.306Z,100759.04
2023-02-21T08:30:58.276Z,100752.98
2023-02-21T08:33:10.932Z,100768.73
2023-02-21T08:35:25.205Z,100778.45
2023-02-21T08:37:46.296Z,100790.39
2023-02-21T08:39:59.431Z,100793.86
2023-02-21T08:42:14.854Z,100801.64
2023-02-21T08:44:29.134Z,100798.17
2023-02-21T08:46:42.537Z,100800.91
2023-02-21T08:48:56.476Z,100807.00
2023-02-21T08:51:10.364Z,100823.55
2023-02-21T08:53:24.084Z,100819.77
2023-02-21T08:55:38.060Z,100823.55
2023-02-21T08:57:51.574Z,100821.80
2023-02-21T09:00:05.453Z,100817.55
2023-02-21T09:02:21.757Z,100815.20
2023-02-21T09:04:34.955Z,100812.64
2023-02-21T09:06:47.856Z,100808.42
2023-02-21T09:09:01.763Z,100809.55
2023-02-21T09:11:15.624Z,100810.16
2023-02-21T09:13:30.110Z,100808.22
2023-02-21T09:15:44.028Z,100811.90
2023-02-21T09:17:58.689Z,100814.94
2023-02-21T09:20:18.537Z,100809.27
2023-02-21T09:22:34.014Z,100806.80
2023-02-21T09:24:47.525Z,100811.22
2023-02-21T09:27:04.255Z,100813.77
2023-02-21T09:29:17.752Z,100810.64
2023-02-21T09:31:31.596Z,100806.61
2023-02-21T09:33:45.610Z,100801.55
2023-02-21T09:35:58.812Z,100802.46
2023-02-21T09:38:12.519Z,100798.45
2023-02-21T09:40:37.791Z,100800.38
2023-02-21T09:42:53.321Z,100797.80
2023-02-21T09:45:07.273Z,100798.70
2023-02-21T09:47:28.133Z,100810.38
2023-02-21T09:49:45.154Z,100807.92
2023-02-21T09:52:00.086Z,100809.52
2023-02-21T09:54:22.684Z,100821.82
2023-02-21T09:56:38.373Z,100829.92
2023-02-21T09:58:53.065Z,100828.63
2023-02-21T10:01:15.070Z,100831.71
2023-02-21T10:03:52.352Z,100831.20
2023-02-21T10:06:13.841Z,100815.09
2023-02-21T10:08:38.149Z,100816.15
2023-02-21T10:10:56.534Z,100818.16
2023-02-21T10:13:23.196Z,100823.77
2023-02-21T10:15:51.440Z,100820.70
2023-02-21T10:18:09.946Z,100819.48
2023-02-21T10:20:32.089Z,100814.80
2023-02-21T10:22:48.717Z,100818.30
2023-02-21T10:25:03.632Z,100805.73
2023-02-21T10:27:21.781Z,100803.11
2023-02-21T10:29:48.509Z,100798.22
2023-02-21T10:32:05.460Z,100791.39
2023-02-21T10:34:27.500Z,100787.35
2023-02-21T10:36:41.407Z,100785.80
2023-02-21T10:39:03.856Z,100780.73
2023-02-21T10:41:19.650Z,100777.23
2023-02-21T10:43:40.205Z,100777.28
2023-02-21T10:45:59.276Z,100771.84
2023-02-21T10:48:13.955Z,100768.16
2023-02-21T10:50:43.965Z,100768.50
2023-02-21T10:52:57.546Z,100777.02
2023-02-21T10:55:31.656Z,100777.59
2023-02-21T10:57:49.238Z,100771.41
2023-02-21T11:00:02.980Z,100767.04
2023-02-21T11:04:51.264Z,100759.02
2023-02-21T11:07:08.522Z,100757.71
2023-02-21T11:09:47.391Z,100752.85
2023-02-21T11:12:06.786Z,100743.16
2023-02-21T11:14:30.892Z,100740.72
2023-02-21T11:16:43.810Z,100741.82
2023-02-21T11:19:10.501Z,100736.02
2023-02-21T11:21:24.028Z,100740.57
2023-02-21T11:23:37.365Z,100734.00
2023-02-21T11:25:51.274Z,100731.62
2023-02-21T11:28:21.694Z,100733.77
2023-02-21T11:30:37.208Z,100730.86
2023-02-21T11:32:57.170Z,100730.73
2023-02-21T11:35:27.812Z,100728.42
2023-02-21T11:37:50.226Z,100726.42
2023-02-21T11:40:01.997Z,100724.31
2023-02-21T11:42:31.631Z,100718.49
2023-02-21T11:44:46.314Z,100713.90
2023-02-21T11:47:07.977Z,100714.57
2023-02-21T11:49:27.670Z,100719.51
2023-02-21T11:51:47.251Z,100725.11
2023-02-21T11:54:00.326Z,100725.82
2023-02-21T11:56:23.679Z,100715.06
2023-02-21T11:58:44.624Z,100703.35
2023-02-21T12:01:07.265Z,100701.39
2023-02-21T12:03:43.807Z,100706.36
2023-02-21T12:06:05.178Z,100699.09
2023-02-21T12:08:41.929Z,100693.66
2023-02-21T12:11:03.272Z,100695.42
2023-02-21T12:13:30.626Z,100699.43
2023-02-21T12:15:55.870Z,100694.38
2023-02-21T12:18:29.769Z,100689.33
2023-02-21T12:20:57.867Z,100679.66
2023-02-21T12:23:17.413Z,100682.80
2023-02-21T12:25:41.047Z,100677.39
2023-02-21T12:27:58.854Z,100671.89
2023-02-21T12:30:40.611Z,100665.59
2023-02-21T12:33:14.447Z,100657.14
2023-02-21T12:36:03.624Z,100660.59
2023-02-21T12:38:26.779Z,100655.63
2023-02-21T12:40:48.370Z,100653.86
2023-02-21T12:43:15.383Z,100650.88
2023-02-21T12:45:49.903Z,100640.40
2023-02-21T12:48:10.049Z,100647.63
2023-02-21T12:50:28.348Z,100642.70
2023-02-21T12:52:46.215Z,100639.50
2023-02-21T12:55:04.865Z,100636.43
2023-02-21T12:57:22.582Z,100632.98
2023-02-21T12:59:43.056Z,100623.68
2023-02-21T13:01:59.767Z,100625.39
2023-02-21T13:04:21.352Z,100620.84
2023-02-21T13:06:37.272Z,100625.08
2023-02-21T13:08:59.309Z,100626.31
2023-02-21T13:11:17.763Z,100629.23
2023-02-21T13:13:33.200Z,100633.73
2023-02-21T13:15:48.921Z,100635.95
2023-02-21T13:18:09.640Z,100626.14
2023-02-21T13:20:25.792Z,100621.18
2023-02-21T13:23:10.533Z,100620.74
2023-02-21T13:25:55.032Z,100621.18
2023-02-21T13:28:12.750Z,100614.28
2023-02-21T13:30:30.771Z,100611.59
2023-02-21T13:32:53.762Z,100610.27
2023-02-21T13:35:10.354Z,100608.09
2023-02-21T13:37:26.005Z,100606.86
2023-02-21T13:39:40.983Z,100605.16
2023-02-21T13:41:56.911Z,100599.88
2023-02-21T13:44:13.350Z,100596.84
2023-02-21T13:47:04.419Z,100597.11
2023-02-21T13:49:44.388Z,100589.09
2023-02-21T13:52:17.055Z,100584.50
2023-02-21T13:54:30.472Z,100590.81
2023-02-21T13:56:51.441Z,100597.10
2023-02-21T13:59:38.967Z,100605.19
2023-02-21T14:01:53.098Z,100600.92
2023-02-21T14:04:26.220Z,100602.25
2023-02-21T14:06:41.331Z,100594.39
2023-02-21T14:08:59.600Z,100588.86
2023-02-21T14:11:22.447Z,100586.17
2023-02-21T14:13:45.600Z,100580.63
2023-02-21T14:16:12.227Z,100578.13
2023-02-21T14:18:33.992Z,100583.17
2023-02-21T14:20:49.023Z,100584.20
2023-02-21T14:23:04.468Z,100576.80
2023-02-21T16:44:18.462Z,100399.63
2023-02-21T16:46:33.508Z,100395.00
2023-02-21T16:48:46.789Z,100387.79
2023-02-21T16:50:59.960Z,100385.39
2023-02-21T16:53:14.454Z,100379.89
2023-02-21T16:55:27.752Z,100378.02
2023-02-21T16:57:40.444Z,100375.21
2023-02-21T16:59:53.530Z,100369.96
2023-02-21T17:02:07.746Z,100364.95
2023-02-21T17:04:24.973Z,100358.52
2023-02-21T17:06:37.876Z,100350.52
2023-02-21T17:08:51.042Z,100344.33
2023-02-21T17:11:04.338Z,100343.90
2023-02-21T17:13:17.342Z,100337.96
2023-02-21T17:15:29.952Z,100325.86
2023-02-21T17:17:44.492Z,100312.70
2023-02-21T17:20:05.043Z,100315.10
2023-02-21T17:22:18.059Z,100304.91
2023-02-21T17:24:30.771Z,100301.23
2023-02-21T17:26:44.064Z,100295.15
2023-02-21T17:28:57.175Z,100288.69
2023-02-21T17:31:10.297Z,100285.81
2023-02-21T17:33:23.253Z,100286.02
2023-02-21T17:35:35.978Z,100285.81
2023-02-21T17:37:50.690Z,100274.59
2023-02-21T17:40:03.695Z,100277.64
2023-02-21T17:42:16.568Z,100267.52
2023-02-21T17:44:29.908Z,100269.09
2023-02-21T17:46:44.052Z,100265.69
2023-02-21T17:48:56.720Z,100271.63
2023-02-21T17:51:11.419Z,100266.28
2023-02-21T17:53:24.385Z,100274.02
2023-02-21T17:55:37.126Z,100273.77
2023-02-21T17:57:50.347Z,100285.82
2023-02-21T18:00:03.293Z,100283.20
2023-02-21T18:02:20.027Z,100293.50
2023-02-21T18:04:33.102Z,100302.05
2023-02-21T18:06:46.256Z,100300.18
2023-02-21T18:09:02.072Z,100299.39
2023-02-21T18:11:18.377Z,100292.69
2023-02-21T18:13:31.714Z,100291.27
2023-02-21T18:15:44.615Z,100283.79
2023-02-21T18:17:57.224Z,100280.05
2023-02-21T18:20:12.204Z,100271.82
2023-02-21T18:22:25.699Z,100266.23
2023-02-21T18:24:41.260Z,100266.28
2023-02-21T18:26:53.912Z,100264.38
2023-02-21T18:29:07.346Z,100263.98
2023-02-21T18:31:23.427Z,100268.67
2023-02-21T18:33:36.053Z,100263.41
2023-02-21T18:35:48.807Z,100261.70
2023-02-21T18:38:01.495Z,100259.80
2023-02-21T18:40:16.980Z,100254.23
2023-02-21T18:42:29.815Z,100250.28
2023-02-21T18:44:47.679Z,100251.05
2023-02-21T18:47:02.985Z,100241.18
2023-02-21T18:49:18.238Z,100242.10
2023-02-21T18:51:31.102Z,100235.34
2023-02-21T18:53:46.628Z,100228.57
2023-02-21T18:56:00.687Z,100222.48
2023-02-21T18:58:14.616Z,100220.10
2023-02-21T19:00:29.574Z,100218.62
2023-02-21T19:02:43.215Z,100218.95
2023-02-21T19:04:58.168Z,100217.19
2023-02-21T19:07:17.861Z,100216.59
2023-02-21T19:09:30.896Z,100216.10
2023-02-21T19:11:43.976Z,100217.81
2023-02-21T19:13:56.985Z,100211.35
2023-02-21T19:16:11.875Z,100203.52
2023-02-21T19:18:25.625Z,100207.23
2023-02-21T19:20:41.123Z,100205.38
2023-02-21T19:22:56.541Z,100204.58
2023-02-21T19:25:10.706Z,100199.48
2023-02-21T19:27:24.142Z,100197.71
2023-02-21T19:29:36.908Z,100203.73
2023-02-21T19:31:50.743Z,100196.50
2023-02-21T19:34:04.411Z,100190.57
2023-02-21T19:36:17.768Z,100183.45
2023-02-21T19:38:30.530Z,100173.48
2023-02-21T19:40:43.895Z,100167.71
2023-02-21T19:42:56.871Z,100160.70
2023-02-21T19:45:11.212Z,100156.60
2023-02-21T19:47:26.035Z,100148.75
2023-02-21T19:49:39.435Z,100148.95
2023-02-21T19:51:54.449Z,100143.59
2023-02-21T19:54:08.293Z,100130.67
2023-02-21T19:56:21.449Z,100131.83
2023-02-21T19:58:34.567Z,100125.95
2023-02-21T20:00:47.810Z,100119.67
2023-02-21T20:03:00.807Z,100120.92
2023-02-21T20:05:15.086Z,100126.63
2023-02-21T20:07:28.717Z,100121.90
2023-02-21T20:09:41.430Z,100120.13
2023-02-21T20:11:54.444Z,100115.20
2023-02-21T20:14:06.946Z,100114.04
2023-02-21T20:16:21.495Z,100113.00
2023-02-21T20:18:34.838Z,100114.73
2023-02-21T20:20:48.354Z,100111.79
2023-02-21T20:23:03.186Z,100104.98
2023-02-21T20:25:17.557Z,100098.77
2023-02-21T20:27:30.559Z,100094.73
2023-02-21T20:29:45.699Z,100094.34
2023-02-21T20:31:59.318Z,100093.39
2023-02-21T20:34:13.430Z,100087.58
2023-02-21T20:36:32.991Z,100091.81
2023-02-21T20:38:45.975Z,100089.75
2023-02-21T20:40:58.843Z,100083.95
2023-02-21T20:43:11.818Z,100078.84
2023-02-21T20:45:24.853Z,100072.48
2023-02-21T20:47:39.143Z,100073.55
2023-02-21T20:49:53.020Z,100069.57
2023-02-21T20:52:05.886Z,100064.32
2023-02-21T20:54:23.277Z,100059.98
2023-02-21T20:56:40.750Z,100054.47
2023-02-21T20:58:53.645Z,100050.75
2023-02-21T21:01:07.182Z,100043.02
2023-02-21T21:03:21.015Z,100041.17
2023-02-21T21:05:34.833Z,100031.77
2023-02-21T21:07:48.140Z,100023.69
2023-02-21T21:10:01.351Z,100019.11
2023-02-21T21:12:18.334Z,100013.80
2023-02-21T21:14:31.421Z,100007.94
2023-02-21T21:16:44.342Z,100005.27
2023-02-21T21:18:58.308Z,100010.12
2023-02-21T21:21:11.690Z,100010.20
2023-02-21T21:23:24.785Z,100015.27
2023-02-21T21:25:37.838Z,100013.24
2023-02-21T21:27:50.836Z,100014.88
2023-02-21T21:30:05.087Z,100016.88
2023-02-21T21:32:20.019Z,100011.25
2023-02-21T21:34:34.182Z,100006.21
2023-02-21T21:36:49.101Z,100001.81
2023-02-21T21:39:02.002Z,99991.54
2023-02-21T21:41:18.671Z,99979.54
2023-02-21T21:43:32.222Z,99971.77
2023-02-21T21:45:45.412Z,99969.94
2023-02-21T21:47:59.794Z,99971.15
2023-02-21T21:50:12.772Z,99974.55
2023-02-21T21:52:26.598Z,99974.41
2023-02-21T21:54:41.579Z,99975.59
2023-02-21T21:56:56.181Z,99969.05
2023-02-21T21:59:10.290Z,99970.20
2023-02-21T22:01:23.962Z,99974.16
2023-02-21T22:03:37.502Z,99978.45
2023-02-21T22:05:52.363Z,99983.61
2023-02-21T22:08:05.492Z,99984.84
2023-02-21T22:10:20.561Z,99977.02
2023-02-21T22:12:33.914Z,99979.08
2023-02-21T22:14:50.981Z,99973.58
2023-02-21T22:17:03.839Z,99971.13
2023-02-21T22:19:17.128Z,99975.59
2023-02-21T22:21:30.463Z,99975.00
2023-02-21T22:23:45.713Z,99966.98
2023-02-21T22:25:59.818Z,99956.02
2023-02-21T22:28:14.220Z,99950.61
2023-02-21T22:30:28.033Z,99954.33
2023-02-21T22:32:42.742Z,99957.55
2023-02-21T22:34:56.402Z,99960.58
2023-02-21T22:37:11.294Z,99967.76
2023-02-21T22:39:25.174Z,99966.36
2023-02-21T22:41:38.023Z,99959.91
2023-02-21T22:43:52.853Z,99959.75
2023-02-21T22:46:08.705Z,99954.68
2023-02-21T22:48:22.543Z,99954.66
2023-02-21T22:50:38.096Z,99953.19
2023-02-21T22:52:55.876Z,99942.25
2023-02-21T22:55:09.666Z,99936.96
2023-02-21T22:57:23.687Z,99938.80
2023-02-21T22:59:37.318Z,99928.65
2023-02-21T23:01:51.774Z,99921.48
2023-02-21T23:04:17.519Z,99917.41
2023-02-21T23:06:31.109Z,99914.46
2023-02-21T23:08:43.869Z,99918.80
2023-02-21T23:10:56.600Z,99914.25
2023-02-21T23:13:10.482Z,99915.63
2023-02-21T23:15:23.988Z,99911.67
2023-02-21T23:17:39.175Z,99907.37
2023-02-21T23:19:51.954Z,99903.89
2023-02-21T23:22:06.456Z,99908.27
2023-02-21T23:24:20.933Z,99909.55
2023-02-21T23:26:34.086Z,99912.17
2023-02-21T23:28:47.248Z,99908.05
2023-02-21T23:31:00.883Z,99901.31
2023-02-21T23:33:16.949Z,99908.22
2023-02-21T23:35:29.988Z,99900.96
2023-02-21T23:37:44.158Z,99904.41
2023-02-21T23:39:57.562Z,99896.70
2023-02-21T23:42:11.906Z,99897.96
2023-02-21T23:44:25.391Z,99897.09
2023-02-21T23:46:41.100Z,99896.89
2023-02-21T23:48:55.613Z,99896.67
2023-02-21T23:51:09.357Z,99898.29
2023-02-21T23:53:24.023Z,99885.80
2023-02-21T23:55:38.555Z,99873.73
2023-02-21T23:57:52.465Z,99873.83
